sensor_id;sensor_type;location;lat;lon;timestamp;temperature;humidity
19060;DHT22;9663;48.996;8.334;2023-04-06T00:02:08;4.70;37.60
19060;DHT22;9663;48.996;8.334;2023-04-06T00:04:34;6.20;38.50
19060;DHT22;9663;48.996;8.334;2023-04-06T00:07:00;4.90;38.10
19060;DHT22;9663;48.996;8.334;2023-04-06T00:09:26;6.10;38.70
19060;DHT22;9663;48.996;8.334;2023-04-06T00:11:52;3.70;37.60
19060;DHT22;9663;48.996;8.334;2023-04-06T00:14:17;4.90;37.50
19060;DHT22;9663;48.996;8.334;2023-04-06T00:16:43;6.90;39.30
19060;DHT22;9663;48.996;8.334;2023-04-06T00:19:09;5.00;38.50
19060;DHT22;9663;48.996;8.334;2023-04-06T00:21:35;4.50;38.30
19060;DHT22;9663;48.996;8.334;2023-04-06T00:24:00;3.60;38.30
19060;DHT22;9663;48.996;8.334;2023-04-06T00:28:52;5.70;39.10
19060;DHT22;9663;48.996;8.334;2023-04-06T00:31:18;4.30;38.90
19060;DHT22;9663;48.996;8.334;2023-04-06T00:33:44;5.90;39.50
19060;DHT22;9663;48.996;8.334;2023-04-06T00:36:10;3.10;38.50
19060;DHT22;9663;48.996;8.334;2023-04-06T00:38:35;5.40;39.40
19060;DHT22;9663;48.996;8.334;2023-04-06T00:41:03;5.70;39.20
19060;DHT22;9663;48.996;8.334;2023-04-06T00:43:29;4.20;38.00
19060;DHT22;9663;48.996;8.334;2023-04-06T00:45:55;4.20;38.90
19060;DHT22;9663;48.996;8.334;2023-04-06T00:48:21;2.70;38.90
19060;DHT22;9663;48.996;8.334;2023-04-06T00:50:47;5.80;40.40
19060;DHT22;9663;48.996;8.334;2023-04-06T00:53:13;3.40;38.30
19060;DHT22;9663;48.996;8.334;2023-04-06T00:55:39;4.90;40.00
19060;DHT22;9663;48.996;8.334;2023-04-06T00:58:05;4.40;39.50
19060;DHT22;9663;48.996;8.334;2023-04-06T01:00:32;4.20;39.20
19060;DHT22;9663;48.996;8.334;2023-04-06T01:02:58;4.00;39.10
19060;DHT22;9663;48.996;8.334;2023-04-06T01:05:24;5.80;39.90
19060;DHT22;9663;48.996;8.334;2023-04-06T01:07:50;3.20;38.80
19060;DHT22;9663;48.996;8.334;2023-04-06T01:10:26;4.40;39.40
19060;DHT22;9663;48.996;8.334;2023-04-06T01:12:53;4.20;39.30
19060;DHT22;9663;48.996;8.334;2023-04-06T01:15:19;4.20;39.60
19060;DHT22;9663;48.996;8.334;2023-04-06T01:17:46;4.00;39.00
19060;DHT22;9663;48.996;8.334;2023-04-06T01:20:12;5.60;39.80
19060;DHT22;9663;48.996;8.334;2023-04-06T01:22:38;5.90;40.50
19060;DHT22;9663;48.996;8.334;2023-04-06T01:25:04;2.70;38.90
19060;DHT22;9663;48.996;8.334;2023-04-06T01:27:30;4.60;39.40
19060;DHT22;9663;48.996;8.334;2023-04-06T01:29:56;4.30;39.80
19060;DHT22;9663;48.996;8.334;2023-04-06T01:32:22;5.70;40.40
19060;DHT22;9663;48.996;8.334;2023-04-06T01:34:48;3.60;39.00
19060;DHT22;9663;48.996;8.334;2023-04-06T01:37:14;4.30;39.40
19060;DHT22;9663;48.996;8.334;2023-04-06T01:39:40;4.30;39.60
19060;DHT22;9663;48.996;8.334;2023-04-06T01:42:07;2.10;38.80
19060;DHT22;9663;48.996;8.334;2023-04-06T01:44:33;4.70;39.90
19060;DHT22;9663;48.996;8.334;2023-04-06T01:46:58;5.90;40.20
19060;DHT22;9663;48.996;8.334;2023-04-06T01:49:24;4.10;39.30
19060;DHT22;9663;48.996;8.334;2023-04-06T01:51:51;2.50;39.00
19060;DHT22;9663;48.996;8.334;2023-04-06T01:54:17;2.80;39.00
19060;DHT22;9663;48.996;8.334;2023-04-06T01:56:43;5.50;40.50
19060;DHT22;9663;48.996;8.334;2023-04-06T01:59:09;4.10;39.50
19060;DHT22;9663;48.996;8.334;2023-04-06T02:01:34;6.10;40.70
19060;DHT22;9663;48.996;8.334;2023-04-06T02:04:00;4.50;40.60
19060;DHT22;9663;48.996;8.334;2023-04-06T02:06:26;4.80;40.20
19060;DHT22;9663;48.996;8.334;2023-04-06T02:08:52;3.90;40.20
19060;DHT22;9663;48.996;8.334;2023-04-06T02:11:17;4.20;40.20
19060;DHT22;9663;48.996;8.334;2023-04-06T02:13:43;4.00;40.10
19060;DHT22;9663;48.996;8.334;2023-04-06T02:16:09;3.80;40.00
19060;DHT22;9663;48.996;8.334;2023-04-06T02:18:34;4.90;41.00
19060;DHT22;9663;48.996;8.334;2023-04-06T02:21:00;3.60;40.10
19060;DHT22;9663;48.996;8.334;2023-04-06T02:23:26;3.50;40.10
19060;DHT22;9663;48.996;8.334;2023-04-06T02:25:52;3.60;40.70
19060;DHT22;9663;48.996;8.334;2023-04-06T02:28:18;3.50;40.70
19060;DHT22;9663;48.996;8.334;2023-04-06T02:30:43;3.50;40.70
19060;DHT22;9663;48.996;8.334;2023-04-06T02:33:09;3.00;40.60
19060;DHT22;9663;48.996;8.334;2023-04-06T02:35:35;3.40;40.70
19060;DHT22;9663;48.996;8.334;2023-04-06T02:38:01;4.30;41.10
19060;DHT22;9663;48.996;8.334;2023-04-06T02:40:26;3.70;41.30
19060;DHT22;9663;48.996;8.334;2023-04-06T02:42:52;3.90;41.00
19060;DHT22;9663;48.996;8.334;2023-04-06T02:45:18;4.90;41.70
19060;DHT22;9663;48.996;8.334;2023-04-06T02:47:44;3.40;41.00
19060;DHT22;9663;48.996;8.334;2023-04-06T02:50:10;4.90;42.60
19060;DHT22;9663;48.996;8.334;2023-04-06T02:52:36;3.10;41.40
19060;DHT22;9663;48.996;8.334;2023-04-06T02:55:01;3.30;41.40
19060;DHT22;9663;48.996;8.334;2023-04-06T02:57:27;3.00;41.30
19060;DHT22;9663;48.996;8.334;2023-04-06T02:59:53;3.20;41.40
19060;DHT22;9663;48.996;8.334;2023-04-06T03:02:19;1.50;40.90
19060;DHT22;9663;48.996;8.334;2023-04-06T03:04:44;3.10;41.00
19060;DHT22;9663;48.996;8.334;2023-04-06T03:07:10;2.90;41.40
19060;DHT22;9663;48.996;8.334;2023-04-06T03:09:39;3.00;41.90
19060;DHT22;9663;48.996;8.334;2023-04-06T03:12:05;3.30;41.60
19060;DHT22;9663;48.996;8.334;2023-04-06T03:14:31;3.30;42.20
19060;DHT22;9663;48.996;8.334;2023-04-06T03:16:56;1.80;41.40
19060;DHT22;9663;48.996;8.334;2023-04-06T03:19:22;3.30;41.90
19060;DHT22;9663;48.996;8.334;2023-04-06T03:21:48;1.50;41.30
19060;DHT22;9663;48.996;8.334;2023-04-06T03:24:13;3.10;41.50
19060;DHT22;9663;48.996;8.334;2023-04-06T03:26:39;3.40;42.00
19060;DHT22;9663;48.996;8.334;2023-04-06T03:29:05;2.80;41.80
19060;DHT22;9663;48.996;8.334;2023-04-06T03:31:31;2.70;41.70
19060;DHT22;9663;48.996;8.334;2023-04-06T03:33:57;2.80;41.40
19060;DHT22;9663;48.996;8.334;2023-04-06T03:36:23;1.00;41.60
19060;DHT22;9663;48.996;8.334;2023-04-06T03:38:49;3.00;42.10
19060;DHT22;9663;48.996;8.334;2023-04-06T03:41:15;3.40;41.90
19060;DHT22;9663;48.996;8.334;2023-04-06T03:43:41;4.50;43.20
19060;DHT22;9663;48.996;8.334;2023-04-06T03:46:06;3.00;42.40
19060;DHT22;9663;48.996;8.334;2023-04-06T03:48:32;3.00;41.60
19060;DHT22;9663;48.996;8.334;2023-04-06T03:50:58;3.10;41.80
19060;DHT22;9663;48.996;8.334;2023-04-06T03:53:23;2.90;41.80
19060;DHT22;9663;48.996;8.334;2023-04-06T03:55:49;2.90;42.10
19060;DHT22;9663;48.996;8.334;2023-04-06T03:58:15;5.00;42.60
19060;DHT22;9663;48.996;8.334;2023-04-06T04:00:41;3.70;42.70
19060;DHT22;9663;48.996;8.334;2023-04-06T04:03:07;4.80;43.40
19060;DHT22;9663;48.996;8.334;2023-04-06T04:05:32;2.90;41.70
19060;DHT22;9663;48.996;8.334;2023-04-06T04:07:58;2.00;42.30
19060;DHT22;9663;48.996;8.334;2023-04-06T04:10:24;2.10;42.30
19060;DHT22;9663;48.996;8.334;2023-04-06T04:12:50;3.10;42.00
19060;DHT22;9663;48.996;8.334;2023-04-06T04:15:15;2.30;41.40
19060;DHT22;9663;48.996;8.334;2023-04-06T04:17:41;4.10;43.00
19060;DHT22;9663;48.996;8.334;2023-04-06T04:20:12;1.80;41.90
19060;DHT22;9663;48.996;8.334;2023-04-06T04:22:37;1.30;41.80
19060;DHT22;9663;48.996;8.334;2023-04-06T04:25:03;2.70;42.40
19060;DHT22;9663;48.996;8.334;2023-04-06T04:27:29;4.90;44.00
19060;DHT22;9663;48.996;8.334;2023-04-06T04:29:55;1.70;42.40
19060;DHT22;9663;48.996;8.334;2023-04-06T04:32:21;4.30;43.30
19060;DHT22;9663;48.996;8.334;2023-04-06T04:34:46;4.80;43.90
19060;DHT22;9663;48.996;8.334;2023-04-06T04:37:12;3.00;43.40
19060;DHT22;9663;48.996;8.334;2023-04-06T04:39:38;2.60;42.60
19060;DHT22;9663;48.996;8.334;2023-04-06T04:42:04;1.80;42.20
19060;DHT22;9663;48.996;8.334;2023-04-06T04:44:29;3.50;43.50
19060;DHT22;9663;48.996;8.334;2023-04-06T04:46:55;2.80;43.20
19060;DHT22;9663;48.996;8.334;2023-04-06T04:49:22;4.60;44.20
19060;DHT22;9663;48.996;8.334;2023-04-06T04:51:47;4.80;44.00
19060;DHT22;9663;48.996;8.334;2023-04-06T04:54:13;4.70;44.60
19060;DHT22;9663;48.996;8.334;2023-04-06T04:56:39;3.70;43.50
19060;DHT22;9663;48.996;8.334;2023-04-06T04:59:04;1.50;42.30
19060;DHT22;9663;48.996;8.334;2023-04-06T05:01:30;3.90;43.90
19060;DHT22;9663;48.996;8.334;2023-04-06T05:03:56;1.30;42.60
19060;DHT22;9663;48.996;8.334;2023-04-06T05:06:21;1.50;42.30
19060;DHT22;9663;48.996;8.334;2023-04-06T05:08:47;1.50;42.70
19060;DHT22;9663;48.996;8.334;2023-04-06T05:11:13;2.90;43.20
19060;DHT22;9663;48.996;8.334;2023-04-06T05:13:39;2.80;43.50
19060;DHT22;9663;48.996;8.334;2023-04-06T05:16:05;3.10;43.20
19060;DHT22;9663;48.996;8.334;2023-04-06T05:18:31;4.50;44.10
19060;DHT22;9663;48.996;8.334;2023-04-06T05:20:56;3.10;43.10
19060;DHT22;9663;48.996;8.334;2023-04-06T05:23:22;3.60;43.30
19060;DHT22;9663;48.996;8.334;2023-04-06T05:25:48;3.50;43.40
19060;DHT22;9663;48.996;8.334;2023-04-06T05:28:14;3.00;42.70
19060;DHT22;9663;48.996;8.334;2023-04-06T05:30:42;4.60;43.90
19060;DHT22;9663;48.996;8.334;2023-04-06T05:33:10;3.10;43.00
19060;DHT22;9663;48.996;8.334;2023-04-06T05:35:36;3.50;42.90
19060;DHT22;9663;48.996;8.334;2023-04-06T05:38:02;5.60;44.50
19060;DHT22;9663;48.996;8.334;2023-04-06T05:40:28;2.30;42.20
19060;DHT22;9663;48.996;8.334;2023-04-06T05:42:54;3.60;43.50
19060;DHT22;9663;48.996;8.334;2023-04-06T05:45:19;2.10;42.60
19060;DHT22;9663;48.996;8.334;2023-04-06T05:47:46;5.10;43.50
19060;DHT22;9663;48.996;8.334;2023-04-06T05:50:15;3.40;43.40
19060;DHT22;9663;48.996;8.334;2023-04-06T05:52:41;3.30;42.80
19060;DHT22;9663;48.996;8.334;2023-04-06T05:55:08;3.50;43.30
19060;DHT22;9663;48.996;8.334;2023-04-06T05:57:35;3.60;43.40
19060;DHT22;9663;48.996;8.334;2023-04-06T06:00:01;5.60;44.00
19060;DHT22;9663;48.996;8.334;2023-04-06T06:02:30;3.30;42.80
19060;DHT22;9663;48.996;8.334;2023-04-06T06:04:56;3.90;43.70
19060;DHT22;9663;48.996;8.334;2023-04-06T06:07:23;5.20;44.10
19060;DHT22;9663;48.996;8.334;2023-04-06T06:09:49;4.10;43.40
19060;DHT22;9663;48.996;8.334;2023-04-06T06:12:15;4.70;43.60
19060;DHT22;9663;48.996;8.334;2023-04-06T06:14:41;4.60;43.20
19060;DHT22;9663;48.996;8.334;2023-04-06T06:17:08;4.70;43.60
19060;DHT22;9663;48.996;8.334;2023-04-06T06:19:34;4.60;43.30
19060;DHT22;9663;48.996;8.334;2023-04-06T06:22:00;4.60;43.20
19060;DHT22;9663;48.996;8.334;2023-04-06T06:24:27;5.80;44.00
19060;DHT22;9663;48.996;8.334;2023-04-06T06:26:53;4.70;43.00
19060;DHT22;9663;48.996;8.334;2023-04-06T06:29:19;4.80;43.90
19060;DHT22;9663;48.996;8.334;2023-04-06T06:31:45;5.40;43.30
19060;DHT22;9663;48.996;8.334;2023-04-06T06:34:10;5.10;43.40
19060;DHT22;9663;48.996;8.334;2023-04-06T06:36:38;5.20;42.40
19060;DHT22;9663;48.996;8.334;2023-04-06T06:39:03;5.50;42.90
19060;DHT22;9663;48.996;8.334;2023-04-06T06:41:29;5.60;43.10
19060;DHT22;9663;48.996;8.334;2023-04-06T06:43:55;5.40;42.80
19060;DHT22;9663;48.996;8.334;2023-04-06T06:46:21;6.60;42.80
19060;DHT22;9663;48.996;8.334;2023-04-06T06:48:47;5.80;42.80
19060;DHT22;9663;48.996;8.334;2023-04-06T06:51:12;5.60;42.90
19060;DHT22;9663;48.996;8.334;2023-04-06T06:53:38;5.90;42.60
19060;DHT22;9663;48.996;8.334;2023-04-06T06:56:04;6.00;42.60
19060;DHT22;9663;48.996;8.334;2023-04-06T06:58:30;6.50;43.00
19060;DHT22;9663;48.996;8.334;2023-04-06T07:00:56;7.60;43.10
19060;DHT22;9663;48.996;8.334;2023-04-06T07:03:23;7.80;43.30
19060;DHT22;9663;48.996;8.334;2023-04-06T07:05:50;8.70;43.40
19060;DHT22;9663;48.996;8.334;2023-04-06T07:08:22;9.10;43.60
19060;DHT22;9663;48.996;8.334;2023-04-06T07:10:50;6.90;42.20
19060;DHT22;9663;48.996;8.334;2023-04-06T07:13:21;6.90;42.20
19060;DHT22;9663;48.996;8.334;2023-04-06T07:15:51;5.80;41.20
19060;DHT22;9663;48.996;8.334;2023-04-06T07:18:20;6.90;41.90
19060;DHT22;9663;48.996;8.334;2023-04-06T07:20:47;8.50;42.80
19060;DHT22;9663;48.996;8.334;2023-04-06T07:23:12;7.70;41.80
19060;DHT22;9663;48.996;8.334;2023-04-06T07:25:38;7.40;42.00
19060;DHT22;9663;48.996;8.334;2023-04-06T07:28:04;7.60;41.50
19060;DHT22;9663;48.996;8.334;2023-04-06T07:30:30;6.60;41.10
19060;DHT22;9663;48.996;8.334;2023-04-06T07:32:56;7.30;41.80
19060;DHT22;9663;48.996;8.334;2023-04-06T07:35:25;7.80;41.80
19060;DHT22;9663;48.996;8.334;2023-04-06T07:37:54;7.00;41.00
19060;DHT22;9663;48.996;8.334;2023-04-06T07:40:20;8.40;41.70
19060;DHT22;9663;48.996;8.334;2023-04-06T07:42:46;6.60;40.90
19060;DHT22;9663;48.996;8.334;2023-04-06T07:45:12;9.70;42.30
19060;DHT22;9663;48.996;8.334;2023-04-06T07:47:38;9.40;42.10
19060;DHT22;9663;48.996;8.334;2023-04-06T07:50:04;8.80;41.50
19060;DHT22;9663;48.996;8.334;2023-04-06T07:52:31;10.00;42.00
19060;DHT22;9663;48.996;8.334;2023-04-06T07:54:59;7.00;40.60
19060;DHT22;9663;48.996;8.334;2023-04-06T07:57:25;10.90;42.20
19060;DHT22;9663;48.996;8.334;2023-04-06T07:59:51;9.30;40.40
19060;DHT22;9663;48.996;8.334;2023-04-06T08:02:17;10.10;41.00
19060;DHT22;9663;48.996;8.334;2023-04-06T08:04:43;9.00;40.80
19060;DHT22;9663;48.996;8.334;2023-04-06T08:07:09;10.60;41.40
19060;DHT22;9663;48.996;8.334;2023-04-06T08:09:35;9.40;40.70
19060;DHT22;9663;48.996;8.334;2023-04-06T08:12:01;9.60;40.80
19060;DHT22;9663;48.996;8.334;2023-04-06T08:14:27;9.60;40.70
19060;DHT22;9663;48.996;8.334;2023-04-06T08:16:53;11.20;41.30
19060;DHT22;9663;48.996;8.334;2023-04-06T08:19:18;8.40;39.90
19060;DHT22;9663;48.996;8.334;2023-04-06T08:21:45;10.00;40.60
19060;DHT22;9663;48.996;8.334;2023-04-06T08:24:14;10.10;40.30
19060;DHT22;9663;48.996;8.334;2023-04-06T08:26:40;9.60;40.10
19060;DHT22;9663;48.996;8.334;2023-04-06T08:29:09;8.60;39.90
19060;DHT22;9663;48.996;8.334;2023-04-06T08:31:35;10.80;40.60
19060;DHT22;9663;48.996;8.334;2023-04-06T08:34:03;10.30;40.20
19060;DHT22;9663;48.996;8.334;2023-04-06T08:36:30;11.10;40.20
19060;DHT22;9663;48.996;8.334;2023-04-06T08:38:57;10.80;40.30
19060;DHT22;9663;48.996;8.334;2023-04-06T08:41:22;11.00;39.90
19060;DHT22;9663;48.996;8.334;2023-04-06T08:43:54;9.80;39.40
19060;DHT22;9663;48.996;8.334;2023-04-06T08:46:23;11.50;39.90
19060;DHT22;9663;48.996;8.334;2023-04-06T08:48:56;11.30;39.00
19060;DHT22;9663;48.996;8.334;2023-04-06T08:51:27;13.40;40.30
19060;DHT22;9663;48.996;8.334;2023-04-06T08:53:55;11.40;39.40
19060;DHT22;9663;48.996;8.334;2023-04-06T08:56:24;11.60;38.80
19060;DHT22;9663;48.996;8.334;2023-04-06T08:58:52;13.00;39.80
19060;DHT22;9663;48.996;8.334;2023-04-06T09:01:29;12.60;39.40
19060;DHT22;9663;48.996;8.334;2023-04-06T09:03:58;12.20;39.00
19060;DHT22;9663;48.996;8.334;2023-04-06T09:06:26;12.30;39.20
19060;DHT22;9663;48.996;8.334;2023-04-06T09:08:56;10.70;37.90
19060;DHT22;9663;48.996;8.334;2023-04-06T09:11:23;11.70;38.70
19060;DHT22;9663;48.996;8.334;2023-04-06T09:13:51;12.80;39.00
19060;DHT22;9663;48.996;8.334;2023-04-06T09:16:18;12.70;38.80
19060;DHT22;9663;48.996;8.334;2023-04-06T09:18:45;12.80;38.10
19060;DHT22;9663;48.996;8.334;2023-04-06T09:21:12;12.80;38.00
19060;DHT22;9663;48.996;8.334;2023-04-06T09:23:39;13.10;38.30
19060;DHT22;9663;48.996;8.334;2023-04-06T09:26:11;11.70;37.30
19060;DHT22;9663;48.996;8.334;2023-04-06T09:28:52;13.50;39.10
19060;DHT22;9663;48.996;8.334;2023-04-06T09:31:27;13.20;37.60
19060;DHT22;9663;48.996;8.334;2023-04-06T09:33:56;14.30;39.20
19060;DHT22;9663;48.996;8.334;2023-04-06T09:36:32;14.90;39.20
19060;DHT22;9663;48.996;8.334;2023-04-06T09:39:04;14.80;39.20
19060;DHT22;9663;48.996;8.334;2023-04-06T09:41:36;14.60;38.60
19060;DHT22;9663;48.996;8.334;2023-04-06T09:44:09;14.50;38.50
19060;DHT22;9663;48.996;8.334;2023-04-06T09:46:37;15.00;39.00
19060;DHT22;9663;48.996;8.334;2023-04-06T09:49:08;14.80;38.50
19060;DHT22;9663;48.996;8.334;2023-04-06T09:51:40;15.80;38.50
19060;DHT22;9663;48.996;8.334;2023-04-06T09:54:11;14.20;36.70
19060;DHT22;9663;48.996;8.334;2023-04-06T09:57:02;14.60;37.50
19060;DHT22;9663;48.996;8.334;2023-04-06T09:59:50;15.10;36.80
19060;DHT22;9663;48.996;8.334;2023-04-06T10:05:05;15.20;37.30
19060;DHT22;9663;48.996;8.334;2023-04-06T10:07:33;16.40;37.00
19060;DHT22;9663;48.996;8.334;2023-04-06T10:10:00;16.20;37.40
19060;DHT22;9663;48.996;8.334;2023-04-06T10:12:28;14.20;35.70
19060;DHT22;9663;48.996;8.334;2023-04-06T10:14:54;17.50;37.10
19060;DHT22;9663;48.996;8.334;2023-04-06T10:17:21;16.50;37.10
19060;DHT22;9663;48.996;8.334;2023-04-06T10:19:55;15.80;36.40
19060;DHT22;9663;48.996;8.334;2023-04-06T10:23:13;16.70;36.70
19060;DHT22;9663;48.996;8.334;2023-04-06T10:25:56;16.80;36.20
19060;DHT22;9663;48.996;8.334;2023-04-06T10:28:24;16.00;35.60
19060;DHT22;9663;48.996;8.334;2023-04-06T10:30:57;16.30;35.00
19060;DHT22;9663;48.996;8.334;2023-04-06T10:33:24;16.90;35.60
19060;DHT22;9663;48.996;8.334;2023-04-06T10:35:50;16.40;34.60
19060;DHT22;9663;48.996;8.334;2023-04-06T10:38:16;17.20;35.90
19060;DHT22;9663;48.996;8.334;2023-04-06T10:40:46;16.60;35.50
19060;DHT22;9663;48.996;8.334;2023-04-06T10:43:21;17.10;35.70
19060;DHT22;9663;48.996;8.334;2023-04-06T10:45:55;16.90;35.30
19060;DHT22;9663;48.996;8.334;2023-04-06T10:48:22;17.10;35.10
19060;DHT22;9663;48.996;8.334;2023-04-06T10:50:50;17.80;35.50
19060;DHT22;9663;48.996;8.334;2023-04-06T10:53:25;19.10;33.40
19060;DHT22;9663;48.996;8.334;2023-04-06T10:55:56;17.10;33.80
19060;DHT22;9663;48.996;8.334;2023-04-06T10:58:27;17.60;33.10
19060;DHT22;9663;48.996;8.334;2023-04-06T11:00:54;17.00;33.50
19060;DHT22;9663;48.996;8.334;2023-04-06T11:03:21;17.80;33.80
19060;DHT22;9663;48.996;8.334;2023-04-06T11:05:51;17.30;33.70
19060;DHT22;9663;48.996;8.334;2023-04-06T11:08:30;17.80;33.30
19060;DHT22;9663;48.996;8.334;2023-04-06T11:11:13;17.90;33.10
19060;DHT22;9663;48.996;8.334;2023-04-06T11:13:43;18.20;33.10
19060;DHT22;9663;48.996;8.334;2023-04-06T11:16:21;18.30;33.50
19060;DHT22;9663;48.996;8.334;2023-04-06T11:21:42;19.10;32.70
19060;DHT22;9663;48.996;8.334;2023-04-06T11:24:14;19.10;31.30
19060;DHT22;9663;48.996;8.334;2023-04-06T11:29:22;18.50;30.60
19060;DHT22;9663;48.996;8.334;2023-04-06T11:32:00;19.30;32.00
19060;DHT22;9663;48.996;8.334;2023-04-06T11:34:29;19.70;31.50
19060;DHT22;9663;48.996;8.334;2023-04-06T11:36:58;19.90;31.50
19060;DHT22;9663;48.996;8.334;2023-04-06T11:39:27;20.10;31.20
19060;DHT22;9663;48.996;8.334;2023-04-06T11:41:57;20.30;30.80
19060;DHT22;9663;48.996;8.334;2023-04-06T11:44:40;20.50;30.60
19060;DHT22;9663;48.996;8.334;2023-04-06T11:47:11;20.00;30.00
19060;DHT22;9663;48.996;8.334;2023-04-06T11:49:41;20.90;30.40
19060;DHT22;9663;48.996;8.334;2023-04-06T11:54:45;21.30;29.70
19060;DHT22;9663;48.996;8.334;2023-04-06T11:57:12;22.80;30.60
19060;DHT22;9663;48.996;8.334;2023-04-06T11:59:38;21.50;29.90
19060;DHT22;9663;48.996;8.334;2023-04-06T12:02:04;21.50;29.50
19060;DHT22;9663;48.996;8.334;2023-04-06T12:04:31;22.30;29.50
19060;DHT22;9663;48.996;8.334;2023-04-06T12:06:57;21.80;29.60
19060;DHT22;9663;48.996;8.334;2023-04-06T12:09:24;21.30;27.90
19060;DHT22;9663;48.996;8.334;2023-04-06T12:11:50;21.60;29.30
19060;DHT22;9663;48.996;8.334;2023-04-06T12:14:16;22.10;29.40
19060;DHT22;9663;48.996;8.334;2023-04-06T12:16:41;24.10;29.90
19060;DHT22;9663;48.996;8.334;2023-04-06T12:19:08;21.80;28.90
19060;DHT22;9663;48.996;8.334;2023-04-06T12:21:36;23.10;29.10
19060;DHT22;9663;48.996;8.334;2023-04-06T12:24:03;23.50;28.90
19060;DHT22;9663;48.996;8.334;2023-04-06T12:26:30;23.80;28.80
19060;DHT22;9663;48.996;8.334;2023-04-06T12:28:56;24.10;28.40
19060;DHT22;9663;48.996;8.334;2023-04-06T12:31:28;24.40;27.70
19060;DHT22;9663;48.996;8.334;2023-04-06T12:33:54;24.60;27.50
19060;DHT22;9663;48.996;8.334;2023-04-06T12:36:20;24.70;27.50
19060;DHT22;9663;48.996;8.334;2023-04-06T12:38:49;24.80;26.80
19060;DHT22;9663;48.996;8.334;2023-04-06T12:41:17;25.10;25.70
19060;DHT22;9663;48.996;8.334;2023-04-06T12:43:43;24.70;26.90
19060;DHT22;9663;48.996;8.334;2023-04-06T12:46:10;24.70;26.80
19060;DHT22;9663;48.996;8.334;2023-04-06T12:48:36;24.80;26.90
19060;DHT22;9663;48.996;8.334;2023-04-06T12:51:04;24.50;26.70
19060;DHT22;9663;48.996;8.334;2023-04-06T12:53:31;25.00;26.40
19060;DHT22;9663;48.996;8.334;2023-04-06T12:55:58;25.00;26.70
19060;DHT22;9663;48.996;8.334;2023-04-06T12:58:24;24.10;26.00
19060;DHT22;9663;48.996;8.334;2023-04-06T13:01:06;25.50;25.20
19060;DHT22;9663;48.996;8.334;2023-04-06T13:03:32;23.40;25.20
19060;DHT22;9663;48.996;8.334;2023-04-06T13:06:00;24.70;26.80
19060;DHT22;9663;48.996;8.334;2023-04-06T13:08:26;24.50;24.10
19060;DHT22;9663;48.996;8.334;2023-04-06T13:10:53;23.60;25.10
19060;DHT22;9663;48.996;8.334;2023-04-06T13:13:29;24.10;25.50
19060;DHT22;9663;48.996;8.334;2023-04-06T13:16:01;23.40;24.60
19060;DHT22;9663;48.996;8.334;2023-04-06T13:18:29;24.80;25.70
19060;DHT22;9663;48.996;8.334;2023-04-06T13:20:56;23.20;25.10
19060;DHT22;9663;48.996;8.334;2023-04-06T13:23:23;23.20;25.10
19060;DHT22;9663;48.996;8.334;2023-04-06T13:26:00;23.00;25.30
19060;DHT22;9663;48.996;8.334;2023-04-06T13:28:27;23.00;25.10
19060;DHT22;9663;48.996;8.334;2023-04-06T13:30:54;22.30;25.70
19060;DHT22;9663;48.996;8.334;2023-04-06T13:33:20;24.40;26.50
19060;DHT22;9663;48.996;8.334;2023-04-06T13:35:46;23.00;25.30
19060;DHT22;9663;48.996;8.334;2023-04-06T13:38:13;22.80;25.50
19060;DHT22;9663;48.996;8.334;2023-04-06T13:40:39;22.90;25.80
19060;DHT22;9663;48.996;8.334;2023-04-06T13:43:06;22.60;25.80
19060;DHT22;9663;48.996;8.334;2023-04-06T13:45:32;22.90;25.80
19060;DHT22;9663;48.996;8.334;2023-04-06T13:47:58;22.90;25.90
19060;DHT22;9663;48.996;8.334;2023-04-06T13:50:27;22.10;25.20
19060;DHT22;9663;48.996;8.334;2023-04-06T13:52:54;22.80;25.50
19060;DHT22;9663;48.996;8.334;2023-04-06T13:55:20;22.50;25.60
19060;DHT22;9663;48.996;8.334;2023-04-06T13:57:46;22.20;25.70
19060;DHT22;9663;48.996;8.334;2023-04-06T14:00:12;22.50;25.70
19060;DHT22;9663;48.996;8.334;2023-04-06T14:02:40;22.30;25.40
19060;DHT22;9663;48.996;8.334;2023-04-06T14:05:06;22.30;25.50
19060;DHT22;9663;48.996;8.334;2023-04-06T14:07:32;21.70;26.00
19060;DHT22;9663;48.996;8.334;2023-04-06T14:09:58;21.90;25.80
19060;DHT22;9663;48.996;8.334;2023-04-06T14:12:24;21.90;25.80
19060;DHT22;9663;48.996;8.334;2023-04-06T14:14:50;20.90;25.30
19060;DHT22;9663;48.996;8.334;2023-04-06T14:17:15;21.30;24.90
19060;DHT22;9663;48.996;8.334;2023-04-06T14:19:41;21.40;25.90
19060;DHT22;9663;48.996;8.334;2023-04-06T14:22:08;22.60;26.40
19060;DHT22;9663;48.996;8.334;2023-04-06T14:24:34;20.60;25.70
19060;DHT22;9663;48.996;8.334;2023-04-06T14:27:01;20.80;25.90
19060;DHT22;9663;48.996;8.334;2023-04-06T14:29:27;21.10;26.10
19060;DHT22;9663;48.996;8.334;2023-04-06T14:31:54;20.90;24.40
19060;DHT22;9663;48.996;8.334;2023-04-06T14:34:26;20.80;25.80
19060;DHT22;9663;48.996;8.334;2023-04-06T14:36:52;20.60;26.00
19060;DHT22;9663;48.996;8.334;2023-04-06T14:39:18;20.40;26.00
19060;DHT22;9663;48.996;8.334;2023-04-06T14:41:43;20.20;25.90
19060;DHT22;9663;48.996;8.334;2023-04-06T14:44:10;19.80;25.50
19060;DHT22;9663;48.996;8.334;2023-04-06T14:46:37;19.70;26.20
19060;DHT22;9663;48.996;8.334;2023-04-06T14:49:03;19.60;25.70
19060;DHT22;9663;48.996;8.334;2023-04-06T14:51:29;19.30;26.50
19060;DHT22;9663;48.996;8.334;2023-04-06T14:53:55;21.00;26.50
19060;DHT22;9663;48.996;8.334;2023-04-06T14:56:23;19.60;26.00
19060;DHT22;9663;48.996;8.334;2023-04-06T14:58:50;19.40;26.90
19060;DHT22;9663;48.996;8.334;2023-04-06T15:01:18;18.90;26.80
19060;DHT22;9663;48.996;8.334;2023-04-06T15:03:44;18.60;27.40
19060;DHT22;9663;48.996;8.334;2023-04-06T15:06:14;18.60;26.90
19060;DHT22;9663;48.996;8.334;2023-04-06T15:08:44;19.60;27.40
19060;DHT22;9663;48.996;8.334;2023-04-06T15:11:11;18.60;27.00
19060;DHT22;9663;48.996;8.334;2023-04-06T15:13:37;19.30;27.50
19060;DHT22;9663;48.996;8.334;2023-04-06T15:16:04;18.90;27.50
19060;DHT22;9663;48.996;8.334;2023-04-06T15:18:30;18.30;26.40
19060;DHT22;9663;48.996;8.334;2023-04-06T15:20:56;18.30;26.50
19060;DHT22;9663;48.996;8.334;2023-04-06T15:23:22;18.30;26.70
19060;DHT22;9663;48.996;8.334;2023-04-06T15:25:48;19.60;27.90
19060;DHT22;9663;48.996;8.334;2023-04-06T15:28:14;18.20;27.50
19060;DHT22;9663;48.996;8.334;2023-04-06T15:30:40;17.40;27.30
19060;DHT22;9663;48.996;8.334;2023-04-06T15:33:07;18.20;27.60
19060;DHT22;9663;48.996;8.334;2023-04-06T15:35:34;17.90;27.60
19060;DHT22;9663;48.996;8.334;2023-04-06T15:38:05;18.40;27.80
19060;DHT22;9663;48.996;8.334;2023-04-06T15:40:31;17.80;27.80
19060;DHT22;9663;48.996;8.334;2023-04-06T15:42:58;18.10;28.00
19060;DHT22;9663;48.996;8.334;2023-04-06T15:45:23;19.30;27.80
19060;DHT22;9663;48.996;8.334;2023-04-06T15:47:49;17.50;27.30
19060;DHT22;9663;48.996;8.334;2023-04-06T15:50:15;17.50;28.00
19060;DHT22;9663;48.996;8.334;2023-04-06T15:52:41;17.40;27.80
19060;DHT22;9663;48.996;8.334;2023-04-06T15:55:08;18.00;28.40
19060;DHT22;9663;48.996;8.334;2023-04-06T15:57:34;17.40;28.20
19060;DHT22;9663;48.996;8.334;2023-04-06T16:00:04;17.60;28.30
19060;DHT22;9663;48.996;8.334;2023-04-06T16:02:30;17.60;28.40
19060;DHT22;9663;48.996;8.334;2023-04-06T16:04:57;17.20;27.60
19060;DHT22;9663;48.996;8.334;2023-04-06T16:07:23;17.20;27.40
19060;DHT22;9663;48.996;8.334;2023-04-06T16:09:52;17.90;28.60